Scammon Bay Airport Scammon Bay US
ICAO: PACM
IATA:
Category: Medium
Scheduled Services:

Elevation: 14 ft
TransAlt. 18000 ft.

Airport Communications:
ASOS:118.425
CTAF/UNICOM:123

PACM Zoom In..

If you have problems with the map follow the link
https://www.worldairports.se/pages/airport.php?
ICAO=PACM

Runways:

(A) RW 10 length 3000 ft width 75 ft
---- / hdg 101

(B) RW 28 length 3000 ft width 75 ft
---- / hdg 281

Location; PACM
Day. 20 / Time. 08.31 Zulu
* Altimeter: 29.42
* Temperature: -13° c. -8.6°f.
* Wind from: 150° Speed 24 kn with Gusts up to 29 kn.
Dewpoint: -14° c.
Visibility: 1 m.
Clouds: Broken 200 ft.
Clouds: Broken 600 ft.
Clouds: Overcast 2300 ft.
Conditions: Light Snow.Conditions: Mist.

PACM 200831Z AUTO 15024G29KT 1 1/4SM -SN BR BKN002 BKN006 OVC023 M13/M14 A2942 RMK AO2 PK WND 16029/0827 P0000 FZRANO


Wind From 150°
Speed 24 kn.

 
 
jpsmedia worldairports.se 2020   terms of use